createdAt,value
2022-07-25T00:03:14.917Z,20.42
2022-07-25T00:07:20.045Z,20.31
2022-07-25T00:11:21.538Z,20.33
2022-07-25T00:15:23.037Z,20.25
2022-07-25T00:19:24.535Z,20.31
2022-07-25T00:23:26.075Z,20.17
2022-07-25T00:27:27.631Z,20.24
2022-07-25T00:31:29.164Z,20.12
2022-07-25T00:35:31.062Z,20.18
2022-07-25T00:39:32.590Z,19.93
2022-07-25T00:43:37.347Z,20.03
2022-07-25T00:47:38.869Z,20.03
2022-07-25T00:51:40.582Z,19.86
2022-07-25T00:55:42.374Z,19.81
2022-07-25T00:59:43.914Z,19.79
2022-07-25T01:03:45.397Z,19.60
2022-07-25T01:07:47.341Z,19.78
2022-07-25T01:11:48.931Z,19.63
2022-07-25T01:15:50.523Z,19.36
2022-07-25T01:19:53.252Z,19.56
2022-07-25T01:23:54.712Z,19.40
2022-07-25T01:27:57.733Z,19.27
2022-07-25T01:31:59.229Z,19.29
2022-07-25T01:36:01.069Z,19.17
2022-07-25T01:40:05.646Z,19.04
2022-07-25T01:44:07.567Z,19.23
2022-07-25T01:48:09.411Z,19.27
2022-07-25T01:52:11.861Z,19.04
2022-07-25T01:56:13.356Z,19.07
2022-07-25T02:00:16.413Z,18.97
2022-07-25T02:04:18.035Z,18.77
2022-07-25T02:08:19.518Z,18.77
2022-07-25T02:12:21.061Z,18.75
2022-07-25T02:16:28.699Z,18.77
2022-07-25T02:20:30.788Z,18.42
2022-07-25T02:24:32.595Z,18.08
2022-07-25T02:28:34.120Z,18.39
2022-07-25T02:32:35.641Z,18.26
2022-07-25T02:36:37.112Z,18.56
2022-07-25T02:40:38.577Z,18.50
2022-07-25T02:44:40.038Z,18.59
2022-07-25T02:48:41.509Z,18.32
2022-07-25T02:52:44.241Z,18.17
2022-07-25T02:56:45.684Z,18.17
2022-07-25T03:00:47.114Z,18.17
2022-07-25T03:04:48.612Z,18.24
2022-07-25T03:08:50.082Z,18.37
2022-07-25T03:12:51.575Z,18.17
2022-07-25T03:16:53.548Z,18.14
2022-07-25T03:20:55.102Z,18.14
2022-07-25T03:24:56.675Z,18.08
2022-07-25T03:28:58.300Z,18.05
2022-07-25T03:32:59.781Z,18.14
2022-07-25T03:37:01.414Z,18.00
2022-07-25T03:41:02.933Z,18.23
2022-07-25T03:45:05.625Z,18.17
2022-07-25T03:49:07.237Z,18.22
2022-07-25T03:53:10.252Z,18.16
2022-07-25T03:57:12.294Z,18.31
2022-07-25T04:01:13.920Z,18.31
2022-07-25T04:05:15.460Z,18.28
2022-07-25T04:09:17.083Z,18.34
2022-07-25T04:13:18.550Z,18.59
2022-07-25T04:17:20.069Z,18.48
2022-07-25T04:21:22.488Z,18.38
2022-07-25T04:25:23.948Z,18.43
2022-07-25T04:29:25.451Z,18.32
2022-07-25T04:33:27.434Z,18.24
2022-07-25T04:37:28.926Z,18.38
2022-07-25T04:41:30.524Z,18.59
2022-07-25T04:45:32.745Z,18.50
2022-07-25T04:49:34.288Z,18.62
2022-07-25T04:53:35.751Z,18.68
2022-07-25T04:57:37.637Z,18.86
2022-07-25T05:01:39.199Z,18.90
2022-07-25T05:05:40.690Z,18.94
2022-07-25T05:09:42.224Z,19.08
2022-07-25T05:13:44.187Z,19.15
2022-07-25T05:17:45.708Z,19.16
2022-07-25T05:21:47.141Z,19.29
2022-07-25T05:25:49.442Z,19.34
2022-07-25T05:29:52.679Z,19.50
2022-07-25T05:33:54.160Z,19.60
2022-07-25T05:37:55.672Z,19.72
2022-07-25T05:41:57.094Z,19.78
2022-07-25T05:46:03.050Z,19.88
2022-07-25T05:50:04.895Z,19.94
2022-07-25T05:54:06.926Z,20.12
2022-07-25T05:58:09.615Z,20.32
2022-07-25T06:02:11.492Z,20.42
2022-07-25T06:06:13.121Z,20.47
2022-07-25T06:10:14.614Z,20.80
2022-07-25T06:14:16.576Z,20.86
2022-07-25T06:18:19.438Z,21.09
2022-07-25T06:22:20.934Z,21.24
2022-07-25T06:26:22.446Z,21.38
2022-07-25T06:30:24.022Z,21.56
2022-07-25T06:34:28.608Z,21.81
2022-07-25T06:38:30.385Z,21.96
2022-07-25T06:42:33.334Z,22.07
2022-07-25T06:46:34.809Z,22.29
2022-07-25T06:50:36.347Z,22.44
2022-07-25T06:54:38.034Z,22.66
2022-07-25T06:58:39.542Z,22.67
2022-07-25T07:03:07.378Z,22.85
2022-07-25T07:07:08.925Z,23.04
2022-07-25T07:11:10.451Z,23.30
2022-07-25T07:15:12.901Z,23.33
2022-07-25T07:19:14.744Z,23.50
2022-07-25T07:23:16.964Z,23.82
2022-07-25T07:27:19.558Z,23.89
2022-07-25T07:31:21.112Z,24.20
2022-07-25T07:35:22.629Z,24.42
2022-07-25T07:39:24.123Z,24.59
2022-07-25T07:43:29.913Z,24.71
2022-07-25T07:47:31.579Z,25.05
2022-07-25T07:51:33.014Z,25.18
2022-07-25T07:55:48.721Z,25.16
2022-07-25T07:59:50.252Z,25.25
2022-07-25T08:03:51.743Z,25.36
2022-07-25T08:07:54.128Z,25.55
2022-07-25T08:11:55.571Z,25.84
2022-07-25T08:15:59.996Z,25.94
2022-07-25T08:20:27.983Z,26.13
2022-07-25T08:24:28.241Z,26.24
2022-07-25T08:28:30.219Z,26.37
2022-07-25T08:32:31.890Z,26.87
2022-07-25T08:36:34.874Z,26.69
2022-07-25T08:40:36.677Z,27.01
2022-07-25T08:44:42.492Z,27.04
2022-07-25T08:48:44.644Z,27.51
2022-07-25T08:52:48.161Z,27.97
2022-07-25T08:56:49.643Z,27.93
2022-07-25T09:00:51.134Z,28.44
2022-07-25T09:04:52.673Z,28.25
2022-07-25T09:08:56.347Z,28.45
2022-07-25T09:12:59.594Z,28.51
2022-07-25T09:17:06.624Z,28.64
2022-07-25T09:21:24.200Z,28.84
2022-07-25T09:25:31.282Z,29.18
2022-07-25T09:29:34.421Z,28.97
2022-07-25T09:33:56.431Z,29.32
2022-07-25T09:38:15.281Z,29.71
2022-07-25T09:42:27.855Z,29.95
2022-07-25T09:46:31.184Z,29.60
2022-07-25T09:50:33.444Z,30.31
2022-07-25T09:54:35.521Z,30.27
2022-07-25T09:58:36.998Z,30.27
2022-07-25T10:02:57.383Z,30.60
2022-07-25T10:07:14.732Z,30.97
2022-07-25T10:11:26.276Z,30.81
2022-07-25T10:15:40.305Z,31.07
2022-07-25T10:19:50.762Z,31.31
2022-07-25T10:24:13.886Z,31.59
2022-07-25T10:28:19.480Z,31.51
2022-07-25T10:32:26.123Z,31.75
2022-07-25T10:36:42.088Z,31.72
2022-07-25T10:40:46.450Z,32.04
2022-07-25T10:44:50.058Z,32.66
2022-07-25T10:48:59.944Z,33.05
2022-07-25T10:53:03.155Z,32.66
2022-07-25T10:57:07.042Z,32.04
2022-07-25T11:01:08.793Z,32.61
2022-07-25T11:05:10.383Z,32.42
2022-07-25T11:09:17.974Z,31.99
2022-07-25T11:13:20.491Z,32.56
2022-07-25T11:17:26.661Z,32.03
2022-07-25T11:21:28.164Z,32.65
2022-07-25T11:25:29.720Z,33.01
2022-07-25T11:29:31.189Z,32.93
2022-07-25T11:33:38.614Z,33.09
2022-07-25T11:37:42.304Z,33.04
2022-07-25T11:41:43.985Z,33.23
2022-07-25T11:46:07.673Z,32.89
2022-07-25T11:50:14.685Z,33.06
2022-07-25T11:54:16.666Z,32.52
2022-07-25T11:58:18.157Z,32.42
2022-07-25T12:02:32.871Z,32.64
2022-07-25T12:06:34.498Z,33.23
2022-07-25T12:10:37.561Z,33.82
2022-07-25T12:14:43.565Z,33.59
2022-07-25T12:18:45.047Z,33.66
2022-07-25T12:22:48.147Z,33.70
2022-07-25T12:26:49.619Z,33.64
2022-07-25T12:30:56.318Z,33.98
2022-07-25T12:34:59.455Z,34.14
2022-07-25T12:39:01.959Z,34.56
2022-07-25T12:43:06.713Z,33.99
2022-07-25T12:47:08.400Z,34.28
2022-07-25T12:51:09.844Z,34.24
2022-07-25T12:55:13.984Z,33.95
2022-07-25T12:59:16.136Z,34.80
2022-07-25T13:03:18.014Z,34.68
2022-07-25T13:07:19.647Z,34.35
2022-07-25T13:11:21.182Z,34.38
2022-07-25T13:15:23.420Z,34.04
2022-07-25T13:19:24.902Z,34.03
2022-07-25T13:23:26.393Z,33.88
2022-07-25T13:27:27.891Z,33.37
2022-07-25T13:31:29.515Z,33.19
2022-07-25T13:35:38.142Z,33.30
2022-07-25T13:39:42.223Z,33.25
2022-07-25T13:43:43.704Z,33.11
2022-07-25T13:47:45.406Z,33.68
2022-07-25T13:51:47.534Z,33.66
2022-07-25T13:55:49.515Z,34.89
2022-07-25T13:59:51.053Z,35.61
2022-07-25T14:03:52.615Z,35.86
2022-07-25T14:07:54.113Z,35.04
2022-07-25T14:11:55.638Z,35.02
2022-07-25T14:15:57.643Z,35.61
2022-07-25T14:19:59.377Z,35.60
2022-07-25T14:24:00.938Z,35.99
2022-07-25T14:28:02.584Z,36.25
2022-07-25T14:32:06.681Z,35.99
2022-07-25T14:36:09.918Z,35.68
2022-07-25T14:40:12.379Z,36.26
2022-07-25T14:44:13.986Z,35.32
2022-07-25T14:48:15.573Z,34.88
2022-07-25T14:52:17.111Z,34.85
2022-07-25T14:56:18.672Z,34.45
2022-07-25T15:00:20.321Z,34.18
2022-07-25T15:04:25.125Z,33.93
2022-07-25T15:08:26.677Z,33.71
2022-07-25T15:12:28.192Z,33.60
2022-07-25T15:16:29.949Z,33.38
2022-07-25T15:20:31.487Z,33.43
2022-07-25T15:24:44.476Z,33.41
2022-07-25T15:28:51.838Z,33.52
2022-07-25T15:32:53.309Z,33.39
2022-07-25T15:36:56.110Z,33.38
2022-07-25T15:40:58.370Z,33.25
2022-07-25T15:45:30.371Z,33.35
2022-07-25T15:49:29.416Z,33.63
2022-07-25T15:53:30.958Z,33.91
2022-07-25T15:57:32.534Z,34.75
2022-07-25T16:01:34.027Z,34.36
2022-07-25T16:05:37.026Z,34.19
2022-07-25T16:09:38.652Z,34.25
2022-07-25T16:13:40.510Z,34.02
2022-07-25T16:17:42.693Z,33.97
2022-07-25T16:21:44.329Z,33.78
2022-07-25T16:25:45.948Z,33.57
2022-07-25T16:29:47.419Z,33.18
2022-07-25T16:33:48.914Z,33.21
2022-07-25T16:37:50.889Z,33.07
2022-07-25T16:41:52.359Z,33.06
2022-07-25T16:45:53.924Z,33.02
2022-07-25T16:49:55.368Z,32.85
2022-07-25T16:53:56.794Z,32.77
2022-07-25T16:57:58.850Z,32.59
2022-07-25T17:02:00.434Z,31.98
2022-07-25T17:06:01.981Z,30.81
2022-07-25T17:10:03.859Z,30.78
2022-07-25T17:14:05.431Z,30.18
2022-07-25T17:18:06.901Z,28.41
2022-07-25T17:22:09.868Z,25.19
2022-07-25T17:26:11.387Z,23.43
2022-07-25T17:30:13.086Z,22.57
2022-07-25T17:34:14.692Z,23.10
2022-07-25T17:38:16.139Z,22.63
2022-07-25T17:42:22.234Z,22.87
2022-07-25T17:46:23.909Z,23.59
2022-07-25T17:50:29.344Z,22.50
2022-07-25T17:54:31.424Z,22.51
2022-07-25T17:58:33.022Z,22.39
2022-07-25T18:02:35.047Z,22.37
2022-07-25T18:06:36.829Z,22.22
2022-07-25T18:10:38.331Z,22.23
2022-07-25T18:14:39.797Z,22.04
2022-07-25T18:18:41.355Z,22.28
2022-07-25T18:22:43.097Z,22.04
2022-07-25T18:26:44.614Z,22.45
2022-07-25T18:30:46.161Z,22.45
2022-07-25T18:34:47.657Z,22.54
2022-07-25T18:38:49.322Z,22.62
2022-07-25T18:42:50.786Z,22.55
2022-07-25T18:46:52.315Z,22.53
2022-07-25T18:50:53.967Z,22.30
2022-07-25T18:54:55.494Z,22.18
2022-07-25T18:58:57.386Z,22.47
2022-07-25T19:02:58.858Z,22.43
2022-07-25T19:07:00.851Z,22.52
2022-07-25T19:11:02.395Z,22.46
2022-07-25T19:15:05.444Z,22.43
2022-07-25T19:19:07.315Z,22.39
2022-07-25T19:23:08.819Z,22.52
2022-07-25T19:27:11.083Z,22.43
2022-07-25T19:31:12.631Z,22.43
2022-07-25T19:35:14.499Z,22.35
2022-07-25T19:39:17.370Z,22.18
2022-07-25T19:43:18.933Z,22.30
2022-07-25T19:47:20.408Z,22.08
2022-07-25T19:51:21.944Z,22.24
2022-07-25T19:55:23.572Z,21.97
2022-07-25T19:59:25.031Z,21.75
2022-07-25T20:03:26.538Z,21.54
2022-07-25T20:07:28.179Z,22.01
2022-07-25T20:11:29.664Z,22.31
2022-07-25T20:15:31.266Z,22.24
2022-07-25T20:19:32.791Z,22.20
2022-07-25T20:23:34.314Z,22.46
2022-07-25T20:27:36.178Z,22.41
2022-07-25T20:31:37.814Z,22.38
2022-07-25T20:35:39.327Z,22.41
2022-07-25T20:39:40.846Z,22.36
2022-07-25T20:43:42.794Z,22.34
2022-07-25T20:47:44.276Z,22.50
2022-07-25T20:51:48.768Z,22.25
2022-07-25T20:55:53.978Z,22.49
2022-07-25T20:59:55.469Z,22.46
2022-07-25T21:03:57.031Z,22.30
2022-07-25T21:07:58.638Z,22.34
2022-07-25T21:12:01.412Z,22.26
2022-07-25T21:16:02.994Z,22.32
2022-07-25T21:20:05.941Z,22.33
2022-07-25T21:24:07.601Z,22.38
2022-07-25T21:28:09.096Z,22.38
2022-07-25T21:32:13.595Z,22.22
2022-07-25T21:36:15.304Z,22.05
2022-07-25T21:40:16.920Z,22.24
2022-07-25T21:44:18.720Z,22.20
2022-07-25T21:48:40.237Z,21.96
2022-07-25T21:52:44.397Z,22.05
2022-07-25T21:56:46.034Z,21.38
2022-07-25T22:00:47.536Z,21.39
2022-07-25T22:04:49.963Z,21.27
2022-07-25T22:08:51.501Z,20.99
2022-07-25T22:12:52.936Z,21.03
2022-07-25T22:16:54.604Z,20.87
2022-07-25T22:20:56.121Z,20.59
2022-07-25T22:24:57.586Z,20.70
2022-07-25T22:28:59.048Z,20.60
2022-07-25T22:33:00.512Z,20.42
2022-07-25T22:37:01.971Z,20.54
2022-07-25T22:41:03.621Z,20.65
2022-07-25T22:45:06.021Z,20.51
2022-07-25T22:49:07.902Z,20.32
2022-07-25T22:53:09.680Z,20.59
2022-07-25T22:57:11.203Z,20.57
2022-07-25T23:01:12.674Z,20.61
2022-07-25T23:05:14.267Z,20.41
2022-07-25T23:09:15.850Z,20.56
2022-07-25T23:13:17.353Z,20.44
2022-07-25T23:17:19.958Z,20.56
2022-07-25T23:21:21.597Z,20.66
2022-07-25T23:25:23.171Z,20.62
2022-07-25T23:29:24.666Z,20.58
2022-07-25T23:33:26.138Z,20.54
2022-07-25T23:37:27.755Z,20.53
2022-07-25T23:41:29.251Z,20.34
2022-07-25T23:45:30.780Z,20.26
2022-07-25T23:49:32.203Z,20.27
2022-07-25T23:53:33.715Z,20.09
2022-07-25T23:57:35.199Z,19.80
